createdAt,value
2019-03-18T00:02:25.507Z,76.89
2019-03-18T00:04:56.965Z,76.75
2019-03-18T00:07:27.487Z,76.81
2019-03-18T00:09:58.031Z,76.95
2019-03-18T00:12:28.547Z,76.58
2019-03-18T00:15:01.609Z,76.76
2019-03-18T00:17:31.213Z,76.26
2019-03-18T00:20:05.174Z,76.01
2019-03-18T00:22:35.587Z,75.78
2019-03-18T00:25:10.305Z,75.20
2019-03-18T00:27:40.629Z,75.16
2019-03-18T00:30:15.580Z,74.88
2019-03-18T00:32:46.111Z,74.89
2019-03-18T00:35:17.774Z,74.78
2019-03-18T00:37:48.281Z,74.89
2019-03-18T00:40:20.824Z,74.48
2019-03-18T00:42:51.181Z,75.00
2019-03-18T00:45:22.648Z,74.54
2019-03-18T00:47:54.091Z,74.55
2019-03-18T00:50:25.544Z,74.46
2019-03-18T00:52:56.989Z,74.73
2019-03-18T00:55:27.538Z,75.09
2019-03-18T00:57:58.967Z,75.10
2019-03-18T01:00:29.234Z,75.22
2019-03-18T01:02:59.726Z,75.59
2019-03-18T01:05:30.270Z,75.61
2019-03-18T01:08:00.782Z,75.78
2019-03-18T01:10:31.046Z,75.91
2019-03-18T01:13:02.457Z,76.25
2019-03-18T01:15:32.997Z,76.16
2019-03-18T01:18:03.321Z,76.46
2019-03-18T01:20:34.985Z,76.56
2019-03-18T01:23:06.409Z,76.67
2019-03-18T01:25:36.686Z,77.01
2019-03-18T01:28:08.398Z,77.49
2019-03-18T01:30:38.944Z,77.36
2019-03-18T01:33:09.459Z,77.41
2019-03-18T01:35:40.922Z,77.55
2019-03-18T01:38:11.439Z,77.68
2019-03-18T01:40:41.699Z,77.46
2019-03-18T01:43:18.960Z,77.57
2019-03-18T01:45:49.489Z,77.71
2019-03-18T01:48:20.008Z,77.16
2019-03-18T01:50:50.563Z,77.02
2019-03-18T01:53:21.086Z,76.99
2019-03-18T01:55:52.550Z,76.78
2019-03-18T01:58:23.044Z,76.64
2019-03-18T02:00:54.516Z,76.58
2019-03-18T02:03:25.968Z,76.55
2019-03-18T02:05:56.500Z,76.39
2019-03-18T02:08:27.012Z,75.88
2019-03-18T02:11:03.393Z,75.62
2019-03-18T02:13:33.907Z,75.46
2019-03-18T02:16:04.451Z,75.26
2019-03-18T02:18:34.966Z,75.31
2019-03-18T02:21:05.517Z,74.86
2019-03-18T02:23:36.026Z,74.51
2019-03-18T02:26:06.580Z,74.42
2019-03-18T02:28:37.077Z,74.53
2019-03-18T02:31:08.553Z,74.63
2019-03-18T02:33:39.064Z,74.66
2019-03-18T02:36:09.618Z,74.45
2019-03-18T02:38:42.278Z,74.43
2019-03-18T02:41:12.827Z,74.50
2019-03-18T02:43:43.350Z,74.50
2019-03-18T02:46:13.874Z,74.29
2019-03-18T02:48:44.393Z,74.21
2019-03-18T02:51:14.943Z,74.44
2019-03-18T02:53:46.379Z,74.32
2019-03-18T02:56:18.152Z,74.28
2019-03-18T02:58:48.665Z,74.13
2019-03-18T03:01:19.209Z,74.36
2019-03-18T03:03:50.638Z,74.38
2019-03-18T03:06:22.115Z,74.13
2019-03-18T03:08:53.540Z,74.41
2019-03-18T03:11:25.016Z,74.33
2019-03-18T03:13:55.532Z,74.18
2019-03-18T03:16:27.726Z,73.90
2019-03-18T03:18:59.658Z,73.81
2019-03-18T03:21:30.207Z,74.08
2019-03-18T03:24:00.722Z,74.26
2019-03-18T03:26:31.270Z,74.30
2019-03-18T03:29:01.779Z,74.06
2019-03-18T03:31:32.343Z,74.16
2019-03-18T03:34:02.834Z,74.48
2019-03-18T03:36:34.321Z,74.54
2019-03-18T03:39:07.078Z,74.43
2019-03-18T03:41:37.530Z,74.59
2019-03-18T03:44:07.863Z,74.46
2019-03-18T03:46:43.761Z,74.79
2019-03-18T03:49:10.311Z,74.59
2019-03-18T03:51:40.580Z,74.73
2019-03-18T03:54:11.071Z,74.68
2019-03-18T03:56:41.338Z,74.65
2019-03-18T03:59:11.845Z,74.55
2019-03-18T04:01:42.369Z,74.51
2019-03-18T04:04:13.804Z,74.39
2019-03-18T04:06:45.271Z,74.51
2019-03-18T04:09:15.783Z,74.62
2019-03-18T04:11:46.325Z,74.66
2019-03-18T04:14:17.766Z,74.72
2019-03-18T04:17:00.770Z,74.38
2019-03-18T04:19:20.359Z,74.50
2019-03-18T04:21:51.161Z,74.62
2019-03-18T04:24:21.723Z,74.45
2019-03-18T04:26:52.267Z,74.32
2019-03-18T04:29:23.707Z,74.50
2019-03-18T04:31:55.183Z,74.80
2019-03-18T04:34:26.608Z,75.03
2019-03-18T04:36:57.165Z,75.08
2019-03-18T04:39:28.596Z,75.07
2019-03-18T04:41:59.146Z,75.19
2019-03-18T04:44:30.039Z,75.23
2019-03-18T04:47:00.508Z,75.14
2019-03-18T04:49:31.019Z,75.11
2019-03-18T04:52:01.572Z,75.43
2019-03-18T04:54:32.086Z,75.51
2019-03-18T04:57:02.617Z,75.70
2019-03-18T04:59:34.055Z,75.80
2019-03-18T05:02:04.609Z,75.84
2019-03-18T05:04:37.265Z,75.94
2019-03-18T05:07:07.810Z,75.99
2019-03-18T05:09:38.327Z,75.89
2019-03-18T05:12:08.877Z,75.83
2019-03-18T05:14:40.306Z,75.56
2019-03-18T05:17:10.872Z,75.71
2019-03-18T05:19:42.295Z,75.72
2019-03-18T05:22:12.841Z,75.73
2019-03-18T05:24:43.365Z,75.85
2019-03-18T05:27:13.899Z,75.64
2019-03-18T05:29:46.165Z,75.54
2019-03-18T05:32:16.491Z,75.60
2019-03-18T05:34:55.854Z,75.24
2019-03-18T05:37:28.290Z,74.88
2019-03-18T05:39:59.738Z,74.38
2019-03-18T05:42:32.531Z,74.21
2019-03-18T05:45:06.899Z,73.38
2019-03-18T05:47:39.995Z,72.63
2019-03-18T05:50:11.497Z,71.86
2019-03-18T05:52:41.923Z,71.23
2019-03-18T05:55:12.461Z,70.88
2019-03-18T05:57:43.889Z,70.52
2019-03-18T06:00:14.886Z,70.35
2019-03-18T06:02:47.386Z,69.65
2019-03-18T06:05:17.951Z,62.67
2019-03-18T06:07:48.480Z,58.32
2019-03-18T06:10:18.993Z,59.68
2019-03-18T06:12:49.548Z,61.45
2019-03-18T06:15:20.074Z,61.67
2019-03-18T06:17:52.848Z,54.17
2019-03-18T06:20:23.908Z,52.86
2019-03-18T06:22:54.417Z,53.69
2019-03-18T06:25:24.959Z,54.04
2019-03-18T06:27:55.474Z,53.07
2019-03-18T06:30:26.021Z,54.20
2019-03-18T06:32:57.453Z,52.43
2019-03-18T06:35:28.907Z,55.99
2019-03-18T06:38:01.293Z,57.81
2019-03-18T06:40:31.846Z,57.13
2019-03-18T06:43:02.339Z,58.88
2019-03-18T06:45:33.810Z,59.01
2019-03-18T06:48:05.488Z,56.55
2019-03-18T06:50:36.082Z,55.64
2019-03-18T06:53:07.512Z,48.40
2019-03-18T06:55:37.773Z,45.77
2019-03-18T06:58:08.283Z,43.69
2019-03-18T07:00:38.808Z,44.76
2019-03-18T07:03:09.333Z,46.20
2019-03-18T07:05:40.793Z,46.85
2019-03-18T07:08:12.251Z,44.09
2019-03-18T07:10:42.779Z,43.95
2019-03-18T07:13:13.301Z,40.96
2019-03-18T07:15:43.837Z,44.40
2019-03-18T07:18:18.458Z,45.98
2019-03-18T07:20:46.540Z,43.99
2019-03-18T07:23:21.867Z,42.24
2019-03-18T07:25:56.361Z,38.34
2019-03-18T07:28:28.465Z,41.35
2019-03-18T07:30:59.001Z,39.93
2019-03-18T07:33:29.535Z,46.36
2019-03-18T07:36:00.974Z,48.69
2019-03-18T07:38:32.428Z,51.54
2019-03-18T07:41:03.894Z,51.64
2019-03-18T07:43:34.440Z,49.81
2019-03-18T07:46:04.958Z,49.86
2019-03-18T07:48:35.478Z,52.70
2019-03-18T07:51:05.993Z,50.71
2019-03-18T07:53:36.534Z,51.29
2019-03-18T07:56:07.124Z,53.04
2019-03-18T07:58:37.612Z,54.01
2019-03-18T08:01:08.121Z,54.34
2019-03-18T08:03:38.653Z,53.97
2019-03-18T08:06:09.213Z,52.33
2019-03-18T08:08:41.103Z,51.29
2019-03-18T08:11:11.808Z,48.74
2019-03-18T08:13:42.389Z,48.22
2019-03-18T08:16:12.869Z,47.92
2019-03-18T08:18:43.702Z,50.05
2019-03-18T08:21:15.457Z,49.55
2019-03-18T08:23:47.287Z,50.34
2019-03-18T08:26:17.767Z,51.48
2019-03-18T08:28:48.680Z,51.67
2019-03-18T08:31:19.174Z,49.72
2019-03-18T08:33:49.629Z,50.39
2019-03-18T08:36:20.781Z,51.35
2019-03-18T08:38:51.426Z,52.75
2019-03-18T08:41:21.950Z,52.93
2019-03-18T08:43:53.522Z,54.53
2019-03-18T08:46:26.416Z,54.69
2019-03-18T08:48:56.947Z,54.25
2019-03-18T08:51:27.671Z,53.27
2019-03-18T08:53:58.155Z,53.97
2019-03-18T08:56:31.135Z,53.33
2019-03-18T08:59:01.668Z,52.02
2019-03-18T09:01:33.125Z,52.36
2019-03-18T09:04:03.684Z,53.09
2019-03-18T09:06:35.103Z,52.64
2019-03-18T09:09:07.263Z,53.46
2019-03-18T09:11:37.697Z,53.08
2019-03-18T09:14:10.705Z,53.57
2019-03-18T09:16:43.669Z,52.70
2019-03-18T09:19:14.198Z,53.77
2019-03-18T09:21:44.710Z,54.08
2019-03-18T09:24:17.693Z,54.71
2019-03-18T09:27:01.593Z,54.75
2019-03-18T09:29:21.241Z,54.53
2019-03-18T09:31:51.827Z,54.12
2019-03-18T09:34:22.296Z,54.62
2019-03-18T09:36:52.824Z,54.68
2019-03-18T09:39:23.350Z,54.39
2019-03-18T09:41:53.880Z,53.55
2019-03-18T09:44:24.418Z,52.49
2019-03-18T09:46:54.970Z,52.20
2019-03-18T09:49:25.481Z,51.66
2019-03-18T09:51:56.018Z,52.24
2019-03-18T09:54:26.524Z,52.21
2019-03-18T09:56:57.077Z,50.87
2019-03-18T09:59:27.584Z,51.26
2019-03-18T10:02:01.500Z,50.68
2019-03-18T10:04:32.025Z,50.86
2019-03-18T10:07:03.503Z,50.67
2019-03-18T10:09:34.318Z,50.20
2019-03-18T10:12:04.855Z,49.63
2019-03-18T10:14:36.304Z,50.09
2019-03-18T10:17:09.901Z,48.25
2019-03-18T10:19:38.901Z,48.44
2019-03-18T10:22:09.416Z,48.35
2019-03-18T10:24:39.950Z,49.05
2019-03-18T10:27:10.490Z,49.21
2019-03-18T10:29:41.026Z,49.26
2019-03-18T10:32:11.548Z,50.13
2019-03-18T10:34:44.806Z,48.98
2019-03-18T10:37:16.276Z,49.76
2019-03-18T10:39:48.057Z,50.32
2019-03-18T10:42:18.574Z,51.07
2019-03-18T10:44:50.031Z,51.40
2019-03-18T10:47:20.547Z,51.16
2019-03-18T10:49:51.102Z,51.97
2019-03-18T10:52:21.617Z,52.26
2019-03-18T10:54:52.146Z,52.59
2019-03-18T10:57:23.589Z,51.69
2019-03-18T10:59:55.060Z,51.73
2019-03-18T11:02:25.572Z,51.05
2019-03-18T11:04:56.108Z,50.82
2019-03-18T11:07:26.631Z,49.52
2019-03-18T11:09:57.175Z,50.37
2019-03-18T11:12:27.685Z,50.05
2019-03-18T11:14:58.239Z,49.64
2019-03-18T11:17:29.664Z,48.84
2019-03-18T11:20:00.262Z,49.58
2019-03-18T11:22:31.652Z,47.67
2019-03-18T11:25:04.158Z,47.88
2019-03-18T11:27:35.779Z,47.40
2019-03-18T11:30:14.723Z,48.59
2019-03-18T11:32:45.136Z,48.83
2019-03-18T11:35:15.664Z,48.84
2019-03-18T11:37:47.117Z,48.47
2019-03-18T11:40:21.429Z,48.75
2019-03-18T11:42:51.862Z,48.23
2019-03-18T11:45:23.315Z,45.75
2019-03-18T11:47:53.859Z,44.97
2019-03-18T11:50:24.384Z,45.00
2019-03-18T11:52:54.659Z,45.65
2019-03-18T11:55:27.397Z,44.75
2019-03-18T11:57:57.807Z,45.55
2019-03-18T12:00:29.563Z,44.66
2019-03-18T12:03:01.016Z,46.04
2019-03-18T12:05:33.722Z,46.42
2019-03-18T12:08:04.235Z,46.26
2019-03-18T12:10:34.758Z,45.55
2019-03-18T12:13:06.228Z,46.06
2019-03-18T12:15:36.901Z,46.13
2019-03-18T12:18:08.628Z,46.33
2019-03-18T12:20:39.027Z,45.80
2019-03-18T12:23:09.570Z,44.98
2019-03-18T12:25:41.012Z,45.05
2019-03-18T12:28:11.679Z,44.94
2019-03-18T12:30:42.071Z,45.46
2019-03-18T12:33:12.620Z,45.54
2019-03-18T12:35:43.139Z,45.76
2019-03-18T12:38:13.661Z,45.46
2019-03-18T12:40:44.197Z,46.70
2019-03-18T12:43:15.182Z,46.10
2019-03-18T12:45:46.790Z,45.47
2019-03-18T12:48:18.577Z,45.25
2019-03-18T12:50:55.802Z,45.18
2019-03-18T12:53:22.187Z,45.43
2019-03-18T12:55:53.082Z,45.71
2019-03-18T12:58:24.658Z,45.52
2019-03-18T13:00:55.190Z,45.83
2019-03-18T13:03:25.745Z,44.84
2019-03-18T13:05:57.871Z,45.54
2019-03-18T13:08:29.580Z,45.10
2019-03-18T13:11:00.086Z,45.07
2019-03-18T13:13:30.624Z,44.63
2019-03-18T13:16:01.146Z,45.67
2019-03-18T13:18:32.588Z,46.19
2019-03-18T13:21:08.150Z,45.20
2019-03-18T13:23:35.357Z,45.14
2019-03-18T13:26:05.723Z,46.02
2019-03-18T13:28:39.519Z,44.59
2019-03-18T13:31:09.824Z,44.86
2019-03-18T13:33:41.801Z,45.70
2019-03-18T13:36:12.443Z,45.86
2019-03-18T13:38:42.987Z,45.86
2019-03-18T13:41:13.497Z,46.06
2019-03-18T13:43:44.062Z,46.69
2019-03-18T13:46:18.401Z,46.71
2019-03-18T13:48:49.406Z,47.11
2019-03-18T13:51:21.102Z,46.72
2019-03-18T13:53:51.765Z,46.94
2019-03-18T13:56:23.124Z,47.49
2019-03-18T13:58:53.680Z,47.66
2019-03-18T14:01:24.193Z,47.53
2019-03-18T14:03:55.979Z,47.03
2019-03-18T14:06:26.487Z,47.05
2019-03-18T14:08:59.136Z,47.12
2019-03-18T14:11:37.223Z,47.19
2019-03-18T14:14:09.469Z,47.35
2019-03-18T14:16:44.260Z,47.29
2019-03-18T14:19:17.546Z,47.50
2019-03-18T14:21:48.177Z,46.66
2019-03-18T14:24:24.339Z,47.46
2019-03-18T14:26:57.264Z,47.88
2019-03-18T14:30:01.733Z,47.68
2019-03-18T14:32:37.632Z,47.25
2019-03-18T14:35:11.931Z,46.44
2019-03-18T14:37:47.363Z,46.32
2019-03-18T14:40:23.656Z,46.65
2019-03-18T14:42:54.131Z,47.09
2019-03-18T14:45:28.506Z,47.04
2019-03-18T14:48:03.367Z,47.49
2019-03-18T14:50:40.170Z,47.33
2019-03-18T14:53:12.679Z,47.50
2019-03-18T14:55:43.112Z,48.31
2019-03-18T14:58:13.548Z,47.71
2019-03-18T15:00:44.061Z,47.74
2019-03-18T15:03:21.016Z,46.48
2019-03-18T15:05:52.519Z,46.21
2019-03-18T15:08:23.246Z,47.02
2019-03-18T15:10:54.820Z,46.69
2019-03-18T15:13:31.230Z,46.79
2019-03-18T15:16:08.549Z,46.69
2019-03-18T15:18:43.284Z,45.82
2019-03-18T15:21:27.087Z,46.50
2019-03-18T15:23:59.404Z,46.71
2019-03-18T15:26:30.855Z,45.93
2019-03-18T15:29:01.422Z,46.17
2019-03-18T15:31:32.940Z,44.27
2019-03-18T15:34:03.369Z,44.49
2019-03-18T15:36:33.865Z,44.09
2019-03-18T15:39:05.919Z,44.50
2019-03-18T15:41:36.689Z,44.47
2019-03-18T15:44:08.225Z,43.96
2019-03-18T15:46:41.820Z,43.87
2019-03-18T15:49:30.216Z,44.15
2019-03-18T15:52:11.000Z,44.68
2019-03-18T15:54:34.310Z,45.18
2019-03-18T15:57:05.748Z,46.00
2019-03-18T15:59:56.502Z,45.60
2019-03-18T16:02:36.736Z,46.26
2019-03-18T16:05:09.126Z,46.50
2019-03-18T16:07:42.541Z,46.82
2019-03-18T16:10:14.814Z,47.52
2019-03-18T16:12:45.228Z,48.25
2019-03-18T16:15:20.902Z,48.06
2019-03-18T16:17:52.901Z,48.49
2019-03-18T16:20:24.808Z,49.03
2019-03-18T16:22:55.304Z,49.69
2019-03-18T16:25:25.879Z,49.55
2019-03-18T16:27:56.500Z,49.68
2019-03-18T16:30:28.819Z,49.67
2019-03-18T16:32:59.347Z,49.66
2019-03-18T16:35:30.145Z,50.21
2019-03-18T16:38:01.613Z,49.92
2019-03-18T16:40:36.227Z,49.57
2019-03-18T16:43:09.216Z,49.98
2019-03-18T16:45:39.608Z,50.41
2019-03-18T16:48:11.082Z,49.92
2019-03-18T16:50:43.307Z,50.03
2019-03-18T16:53:13.780Z,50.25
2019-03-18T16:55:44.189Z,51.01
2019-03-18T16:58:14.508Z,51.82
2019-03-18T17:00:45.623Z,50.73
2019-03-18T17:03:18.036Z,51.98
2019-03-18T17:05:57.468Z,52.31
2019-03-18T17:08:28.534Z,52.52
2019-03-18T17:10:59.043Z,52.86
2019-03-18T17:13:30.463Z,53.30
2019-03-18T17:16:01.922Z,53.37
2019-03-18T17:18:32.845Z,53.19
2019-03-18T17:21:05.011Z,53.96
2019-03-18T17:23:35.364Z,54.15
2019-03-18T17:26:05.889Z,54.04
2019-03-18T17:28:36.428Z,54.19
2019-03-18T17:31:07.028Z,54.97
2019-03-18T17:33:39.069Z,54.82
2019-03-18T17:36:11.479Z,54.72
2019-03-18T17:38:41.927Z,54.51
2019-03-18T17:41:16.084Z,54.74
2019-03-18T17:43:47.577Z,54.57
2019-03-18T17:46:19.945Z,54.48
2019-03-18T17:48:51.811Z,54.60
2019-03-18T17:51:23.991Z,54.72
2019-03-18T17:53:54.489Z,54.91
2019-03-18T17:56:30.231Z,55.41
2019-03-18T17:58:56.934Z,55.08
2019-03-18T18:01:27.424Z,55.20
2019-03-18T18:03:59.860Z,55.45
2019-03-18T18:06:30.831Z,55.73
2019-03-18T18:09:01.432Z,56.05
2019-03-18T18:11:33.551Z,55.74
2019-03-18T18:14:04.095Z,56.04
2019-03-18T18:16:38.110Z,56.27
2019-03-18T18:19:22.439Z,56.71
2019-03-18T18:21:53.751Z,56.71
2019-03-18T18:24:25.342Z,56.80
2019-03-18T18:27:03.271Z,57.30
2019-03-18T18:29:35.714Z,57.71
2019-03-18T18:32:07.893Z,57.83
2019-03-18T18:34:39.485Z,58.28
2019-03-18T18:37:11.501Z,58.79
2019-03-18T18:39:41.940Z,59.36
2019-03-18T18:42:13.673Z,59.56
2019-03-18T18:44:44.261Z,59.90
2019-03-18T18:47:14.794Z,60.19
2019-03-18T18:49:47.017Z,60.34
2019-03-18T18:52:17.562Z,60.59
2019-03-18T18:54:49.117Z,60.64
2019-03-18T18:57:20.859Z,60.76
2019-03-18T18:59:51.205Z,60.47
2019-03-18T19:02:22.864Z,60.84
2019-03-18T19:04:53.387Z,61.03
2019-03-18T19:07:23.933Z,60.84
2019-03-18T19:09:54.524Z,60.92
2019-03-18T19:12:28.069Z,61.13
2019-03-18T19:15:06.532Z,61.37
2019-03-18T19:17:42.054Z,61.21
2019-03-18T19:20:19.834Z,61.49
2019-03-18T19:22:57.803Z,61.28
2019-03-18T19:25:29.644Z,61.61
2019-03-18T19:28:23.930Z,61.45
2019-03-18T19:30:56.276Z,61.51
2019-03-18T19:33:33.889Z,60.90
2019-03-18T19:36:05.674Z,61.21
2019-03-18T19:38:36.246Z,61.25
2019-03-18T19:41:08.673Z,61.13
2019-03-18T19:43:42.503Z,61.21
2019-03-18T19:46:17.328Z,61.41
2019-03-18T19:48:54.475Z,61.41
2019-03-18T19:51:27.696Z,61.53
2019-03-18T19:54:00.837Z,61.68
2019-03-18T19:56:43.229Z,61.05
2019-03-18T19:59:14.258Z,61.21
2019-03-18T20:01:45.859Z,60.75
2019-03-18T20:04:17.999Z,60.96
2019-03-18T20:06:52.590Z,61.11
2019-03-18T20:09:26.390Z,60.89
2019-03-18T20:11:58.353Z,61.10
2019-03-18T20:14:33.729Z,61.35
2019-03-18T20:17:08.121Z,61.24
2019-03-18T20:19:38.842Z,61.33
2019-03-18T20:22:12.155Z,61.63
2019-03-18T20:24:44.966Z,61.81
2019-03-18T20:27:16.263Z,62.06
2019-03-18T20:29:46.820Z,62.17
2019-03-18T20:32:17.351Z,62.04
2019-03-18T20:34:48.811Z,62.22
2019-03-18T20:37:19.350Z,62.54
2019-03-18T20:39:49.853Z,62.83
2019-03-18T20:42:20.404Z,62.62
2019-03-18T20:44:53.671Z,62.94
2019-03-18T20:47:23.592Z,62.99
2019-03-18T20:49:56.245Z,63.24
2019-03-18T20:52:26.821Z,63.30
2019-03-18T20:54:57.391Z,63.49
2019-03-18T20:57:28.772Z,63.31
2019-03-18T21:00:00.160Z,63.60
2019-03-18T21:02:35.075Z,63.45
2019-03-18T21:05:07.953Z,63.60
2019-03-18T21:07:51.774Z,63.53
2019-03-18T21:10:28.614Z,63.60
2019-03-18T21:13:02.164Z,63.87
2019-03-18T21:15:34.139Z,63.83
2019-03-18T21:18:05.577Z,63.63
2019-03-18T21:20:36.092Z,63.73
2019-03-18T21:23:06.653Z,63.93
2019-03-18T21:25:37.158Z,64.14
2019-03-18T21:28:07.497Z,64.52
2019-03-18T21:30:38.243Z,64.85
2019-03-18T21:33:08.847Z,64.97
2019-03-18T21:35:39.603Z,65.25
2019-03-18T21:38:10.625Z,65.64
2019-03-18T21:40:40.973Z,65.56
2019-03-18T21:43:11.519Z,65.80
2019-03-18T21:45:42.015Z,66.21
2019-03-18T21:48:12.563Z,66.43
2019-03-18T21:50:44.007Z,66.51
2019-03-18T21:53:14.556Z,66.54
2019-03-18T21:55:46.331Z,66.67
2019-03-18T21:58:25.083Z,66.58
2019-03-18T22:01:02.774Z,66.82
2019-03-18T22:03:35.185Z,66.99
2019-03-18T22:06:13.713Z,67.31
2019-03-18T22:08:47.647Z,67.42
2019-03-18T22:11:22.319Z,67.80
2019-03-18T22:13:52.863Z,67.80
2019-03-18T22:16:23.421Z,67.96
2019-03-18T22:18:53.933Z,68.48
2019-03-18T22:21:24.489Z,68.72
2019-03-18T22:23:55.277Z,68.79
2019-03-18T22:26:26.796Z,68.58
2019-03-18T22:28:57.287Z,68.32
2019-03-18T22:31:27.835Z,68.03
2019-03-18T22:33:58.340Z,67.91
2019-03-18T22:36:28.913Z,68.13
2019-03-18T22:38:59.724Z,67.72
2019-03-18T22:41:30.398Z,67.79
2019-03-18T22:44:01.991Z,67.51
2019-03-18T22:46:32.561Z,67.34
2019-03-18T22:49:03.124Z,66.99
2019-03-18T22:51:33.582Z,66.63
2019-03-18T22:54:05.026Z,66.26
2019-03-18T22:56:36.484Z,66.11
2019-03-18T22:59:07.922Z,66.01
2019-03-18T23:01:39.690Z,66.04
2019-03-18T23:04:10.013Z,65.76
2019-03-18T23:06:40.440Z,65.62
2019-03-18T23:09:12.257Z,65.93
2019-03-18T23:11:42.729Z,66.11
2019-03-18T23:14:13.255Z,66.57
2019-03-18T23:16:44.734Z,66.81
2019-03-18T23:19:15.231Z,67.48
2019-03-18T23:21:45.766Z,67.87
2019-03-18T23:24:17.220Z,68.27
2019-03-18T23:26:48.017Z,68.57
2019-03-18T23:29:19.505Z,68.80
2019-03-18T23:31:52.193Z,69.08
2019-03-18T23:34:22.714Z,69.16
2019-03-18T23:36:53.245Z,69.37
2019-03-18T23:39:24.695Z,69.46
2019-03-18T23:41:55.254Z,69.73
2019-03-18T23:44:28.226Z,69.71
2019-03-18T23:46:57.840Z,69.87
2019-03-18T23:49:28.353Z,70.01
2019-03-18T23:51:58.890Z,70.34
2019-03-18T23:54:29.406Z,70.10
2019-03-18T23:56:59.959Z,69.79
2019-03-18T23:59:31.697Z,69.79
